createdAt,value
2022-11-19T00:02:02.358Z,1.10
2022-11-19T00:04:32.194Z,1.20
2022-11-19T00:07:00.207Z,1.20
2022-11-19T00:09:28.351Z,1.10
2022-11-19T00:12:14.180Z,1.30
2022-11-19T00:14:42.200Z,1.20
2022-11-19T00:17:10.154Z,1.27
2022-11-19T00:19:39.574Z,1.20
2022-11-19T00:22:07.588Z,1.10
2022-11-19T00:24:35.624Z,1.20
2022-11-19T00:27:03.575Z,1.20
2022-11-19T00:29:31.546Z,1.20
2022-11-19T00:31:59.563Z,1.20
2022-11-19T00:34:27.519Z,1.10
2022-11-19T00:36:56.920Z,1.07
2022-11-19T00:39:24.992Z,1.27
2022-11-19T00:41:52.962Z,1.27
2022-11-19T00:44:20.999Z,1.30
2022-11-19T00:46:49.070Z,1.30
2022-11-19T00:49:17.200Z,1.37
2022-11-19T00:51:45.384Z,1.30
2022-11-19T00:54:14.835Z,1.20
2022-11-19T00:56:42.906Z,1.30
2022-11-19T00:59:11.831Z,1.30
2022-11-19T01:01:40.011Z,1.10
2022-11-19T01:04:08.090Z,1.20
2022-11-19T01:06:36.291Z,1.27
2022-11-19T01:09:05.145Z,1.20
2022-11-19T01:11:36.944Z,1.20
2022-11-19T01:14:06.088Z,1.20
2022-11-19T01:16:36.257Z,1.07
2022-11-19T01:19:06.068Z,1.30
2022-11-19T01:21:36.135Z,1.20
2022-11-19T01:24:05.703Z,1.10
2022-11-19T01:26:35.202Z,1.40
2022-11-19T01:29:03.332Z,1.00
2022-11-19T01:31:32.084Z,1.27
2022-11-19T01:34:00.565Z,1.37
2022-11-19T01:36:30.475Z,1.20
2022-11-19T01:38:59.141Z,1.23
2022-11-19T01:41:30.094Z,1.13
2022-11-19T01:44:02.318Z,1.30
2022-11-19T01:46:32.301Z,1.10
2022-11-19T01:49:04.007Z,1.30
2022-11-19T01:51:36.304Z,1.00
2022-11-19T01:54:11.839Z,1.20
2022-11-19T01:56:40.577Z,1.20
2022-11-19T01:59:13.724Z,1.20
2022-11-19T02:01:43.242Z,1.10
2022-11-19T02:04:13.133Z,1.00
2022-11-19T02:06:42.600Z,1.13
2022-11-19T02:09:10.606Z,0.90
2022-11-19T02:11:56.041Z,1.20
2022-11-19T02:14:43.138Z,1.17
2022-11-19T02:17:19.738Z,1.23
2022-11-19T02:20:26.690Z,1.00
2022-11-19T02:23:16.301Z,1.10
2022-11-19T02:26:06.800Z,1.20
2022-11-19T02:28:39.588Z,1.30
2022-11-19T02:31:13.998Z,1.13
2022-11-19T02:33:49.959Z,1.10
2022-11-19T02:36:24.202Z,1.10
2022-11-19T02:38:59.386Z,1.17
2022-11-19T02:41:36.895Z,1.03
2022-11-19T02:44:29.993Z,1.10
2022-11-19T02:47:02.646Z,1.13
2022-11-19T02:49:33.452Z,1.10
2022-11-19T02:52:02.027Z,1.30
2022-11-19T02:54:29.989Z,1.40
2022-11-19T02:56:59.923Z,1.20
2022-11-19T02:59:54.227Z,1.07
2022-11-19T03:02:42.621Z,1.23
2022-11-19T03:05:19.469Z,1.10
2022-11-19T03:07:47.967Z,1.20
2022-11-19T03:10:18.060Z,1.20
2022-11-19T03:12:53.777Z,1.20
2022-11-19T03:15:46.611Z,1.10
2022-11-19T03:18:20.603Z,1.10
2022-11-19T03:20:54.702Z,1.20
2022-11-19T03:23:28.128Z,1.10
2022-11-19T03:26:02.533Z,1.10
2022-11-19T03:28:35.440Z,1.10
2022-11-19T03:31:04.216Z,1.10
2022-11-19T03:33:38.109Z,1.10
2022-11-19T03:36:11.707Z,1.20
2022-11-19T03:38:44.362Z,1.10
2022-11-19T03:41:16.584Z,1.20
2022-11-19T03:43:49.490Z,1.20
2022-11-19T03:46:19.700Z,1.07
2022-11-19T03:48:53.688Z,1.10
2022-11-19T03:51:27.412Z,1.13
2022-11-19T03:53:55.662Z,1.30
2022-11-19T03:56:27.884Z,1.10
2022-11-19T03:58:56.008Z,1.20
2022-11-19T04:01:24.153Z,1.10
2022-11-19T04:04:10.852Z,0.90
2022-11-19T04:06:38.857Z,1.20
2022-11-19T04:09:06.890Z,1.20
2022-11-19T04:11:34.939Z,1.10
2022-11-19T04:14:02.901Z,0.97
2022-11-19T04:16:30.999Z,1.07
2022-11-19T04:19:00.337Z,1.13
2022-11-19T04:21:28.381Z,1.10
2022-11-19T04:23:56.403Z,1.20
2022-11-19T04:26:24.463Z,1.20
2022-11-19T04:28:52.412Z,1.10
2022-11-19T04:31:20.431Z,1.10
2022-11-19T04:33:48.409Z,1.20
2022-11-19T04:36:17.822Z,1.10
2022-11-19T04:38:45.876Z,1.30
2022-11-19T04:41:14.068Z,1.20
2022-11-19T04:43:42.091Z,1.23
2022-11-19T04:46:10.183Z,1.20
2022-11-19T04:48:38.215Z,1.00
2022-11-19T04:51:06.253Z,1.10
2022-11-19T04:53:35.692Z,1.20
2022-11-19T04:56:03.781Z,1.20
2022-11-19T04:58:31.780Z,1.00
2022-11-19T05:00:59.800Z,1.00
2022-11-19T05:03:27.845Z,0.90
2022-11-19T05:05:55.836Z,1.20
2022-11-19T05:08:23.900Z,1.10
2022-11-19T05:10:53.509Z,1.20
2022-11-19T05:13:21.588Z,1.10
2022-11-19T05:15:49.620Z,1.10
2022-11-19T05:18:17.680Z,1.00
2022-11-19T05:20:45.703Z,1.27
2022-11-19T05:23:13.750Z,1.30
2022-11-19T05:25:41.820Z,1.20
2022-11-19T05:28:11.227Z,1.20
2022-11-19T05:30:39.277Z,1.10
2022-11-19T05:33:07.269Z,0.93
2022-11-19T05:35:35.236Z,1.10
2022-11-19T05:38:03.397Z,1.00
2022-11-19T05:40:31.358Z,1.20
2022-11-19T05:43:07.089Z,1.10
2022-11-19T05:45:36.544Z,1.13
2022-11-19T05:48:04.928Z,1.23
2022-11-19T05:50:32.928Z,1.10
2022-11-19T05:53:00.967Z,1.20
2022-11-19T05:55:28.946Z,1.00
2022-11-19T05:57:56.942Z,1.17
2022-11-19T06:00:24.917Z,1.20
2022-11-19T06:02:54.386Z,1.00
2022-11-19T06:05:22.413Z,1.20
2022-11-19T06:07:50.415Z,1.10
2022-11-19T06:10:18.718Z,1.10
2022-11-19T06:12:46.730Z,1.13
2022-11-19T06:15:15.652Z,1.10
2022-11-19T06:17:43.958Z,1.20
2022-11-19T06:20:13.699Z,1.00
2022-11-19T06:22:41.712Z,1.20
2022-11-19T06:25:10.295Z,1.00
2022-11-19T06:27:38.359Z,1.20
2022-11-19T06:30:07.619Z,1.20
2022-11-19T06:32:35.612Z,0.90
2022-11-19T06:35:03.738Z,1.00
2022-11-19T06:37:33.108Z,1.00
2022-11-19T06:40:01.060Z,0.97
2022-11-19T06:42:37.603Z,1.10
2022-11-19T06:45:07.414Z,1.13
2022-11-19T06:47:35.428Z,1.10
2022-11-19T06:50:03.547Z,1.17
2022-11-19T06:52:33.119Z,0.90
2022-11-19T06:55:01.170Z,1.10
2022-11-19T06:57:29.166Z,1.10
2022-11-19T06:59:57.117Z,0.97
2022-11-19T07:02:25.270Z,1.10
2022-11-19T07:04:53.362Z,1.20
2022-11-19T07:07:21.545Z,1.10
2022-11-19T07:09:51.127Z,1.10
2022-11-19T07:12:19.129Z,1.20
2022-11-19T07:14:47.087Z,1.10
2022-11-19T07:17:15.132Z,1.03
2022-11-19T07:19:43.152Z,1.20
2022-11-19T07:22:11.438Z,1.07
2022-11-19T07:24:39.478Z,1.23
2022-11-19T07:27:08.911Z,1.20
2022-11-19T07:29:38.791Z,1.07
2022-11-19T07:32:07.211Z,1.03
2022-11-19T07:34:35.459Z,1.13
2022-11-19T07:37:03.448Z,1.00
2022-11-19T07:39:31.466Z,1.00
2022-11-19T07:42:17.154Z,1.10
2022-11-19T07:44:48.785Z,1.20
2022-11-19T07:47:20.210Z,0.97
2022-11-19T07:49:48.269Z,1.00
2022-11-19T07:52:16.272Z,1.07
2022-11-19T07:54:44.252Z,1.10
2022-11-19T07:57:12.293Z,1.00
2022-11-19T07:59:40.284Z,0.90
2022-11-19T08:02:11.958Z,0.90
2022-11-19T08:04:40.079Z,1.20
2022-11-19T08:07:08.479Z,1.07
2022-11-19T08:09:36.545Z,0.97
2022-11-19T08:12:04.760Z,1.00
2022-11-19T08:14:32.786Z,1.30
2022-11-19T08:17:17.947Z,1.00
2022-11-19T08:19:47.426Z,1.00
2022-11-19T08:22:15.488Z,0.90
2022-11-19T08:24:43.520Z,0.90
2022-11-19T08:27:11.722Z,1.20
2022-11-19T08:29:39.933Z,0.90
2022-11-19T08:32:07.991Z,0.90
2022-11-19T08:34:35.905Z,1.10
2022-11-19T08:37:05.321Z,1.10
2022-11-19T08:39:33.417Z,1.10
2022-11-19T08:42:18.579Z,1.20
2022-11-19T08:44:46.500Z,1.10
2022-11-19T08:47:14.546Z,1.07
2022-11-19T08:49:42.530Z,1.10
2022-11-19T08:52:11.942Z,1.00
2022-11-19T08:54:39.977Z,1.20
2022-11-19T08:57:07.908Z,0.97
2022-11-19T08:59:36.117Z,1.20
2022-11-19T09:02:04.088Z,1.00
2022-11-19T09:04:32.257Z,1.03
2022-11-19T09:07:00.363Z,1.00
2022-11-19T09:09:29.963Z,1.00
2022-11-19T09:11:57.975Z,0.90
2022-11-19T09:14:26.075Z,0.93
2022-11-19T09:16:54.110Z,1.00
2022-11-19T09:19:22.383Z,0.93
2022-11-19T09:21:50.407Z,0.90
2022-11-19T09:24:18.601Z,0.80
2022-11-19T09:26:52.658Z,0.90
2022-11-19T09:29:21.168Z,1.00
2022-11-19T09:31:49.157Z,0.80
2022-11-19T09:34:17.498Z,1.03
2022-11-19T09:36:45.629Z,0.90
2022-11-19T09:39:13.751Z,1.00
2022-11-19T09:41:51.293Z,1.00
2022-11-19T09:44:34.166Z,1.10
2022-11-19T09:47:13.463Z,1.17
2022-11-19T09:49:58.427Z,0.90
2022-11-19T09:52:29.541Z,0.83
2022-11-19T09:54:58.917Z,0.90
2022-11-19T09:57:36.731Z,1.00
2022-11-19T10:00:07.782Z,1.20
2022-11-19T10:02:36.407Z,1.30
2022-11-19T10:05:04.857Z,1.33
2022-11-19T10:07:45.502Z,1.60
2022-11-19T10:10:26.378Z,1.43
2022-11-19T10:13:13.871Z,1.50
2022-11-19T10:15:56.421Z,1.77
2022-11-19T10:18:30.838Z,1.60
2022-11-19T10:21:07.608Z,1.97
2022-11-19T10:23:48.557Z,1.70
2022-11-19T10:26:17.910Z,1.80
2022-11-19T10:28:55.060Z,1.90
2022-11-19T10:31:30.492Z,1.80
2022-11-19T10:34:05.623Z,1.80
2022-11-19T10:36:39.740Z,1.50
2022-11-19T10:39:16.479Z,1.70
2022-11-19T10:41:51.736Z,1.70
2022-11-19T10:44:40.530Z,1.90
2022-11-19T10:47:13.955Z,1.87
2022-11-19T10:49:44.347Z,2.00
2022-11-19T10:52:20.421Z,1.93
2022-11-19T10:54:50.016Z,2.33
2022-11-19T10:57:20.852Z,2.33
2022-11-19T10:59:53.080Z,1.80
2022-11-19T11:02:31.552Z,1.70
2022-11-19T11:05:08.843Z,1.70
2022-11-19T11:07:54.172Z,1.57
2022-11-19T11:10:37.424Z,1.80
2022-11-19T11:13:34.108Z,1.50
2022-11-19T11:16:09.683Z,1.50
2022-11-19T11:18:40.852Z,1.70
2022-11-19T11:21:14.065Z,1.80
2022-11-19T11:23:52.569Z,1.60
2022-11-19T11:26:24.259Z,1.60
2022-11-19T11:28:58.136Z,1.70
2022-11-19T11:31:42.204Z,1.40
2022-11-19T11:34:29.267Z,1.50
2022-11-19T11:36:57.766Z,1.30
2022-11-19T11:39:29.164Z,1.60
2022-11-19T11:42:07.401Z,1.70
2022-11-19T11:44:38.596Z,1.60
2022-11-19T11:47:14.323Z,1.50
2022-11-19T11:49:45.159Z,1.53
2022-11-19T11:52:22.574Z,1.53
2022-11-19T11:55:01.691Z,1.87
2022-11-19T11:57:31.915Z,1.40
2022-11-19T12:00:00.745Z,1.50
2022-11-19T12:02:32.839Z,1.37
2022-11-19T12:05:03.755Z,1.70
2022-11-19T12:07:45.209Z,1.50
2022-11-19T12:10:26.975Z,1.50
2022-11-19T12:13:11.655Z,1.50
2022-11-19T12:15:50.312Z,1.40
2022-11-19T12:18:27.904Z,1.73
2022-11-19T12:21:06.258Z,1.60
2022-11-19T12:23:53.495Z,1.80
2022-11-19T12:26:29.381Z,1.67
2022-11-19T12:29:13.845Z,1.50
2022-11-19T12:32:00.999Z,1.70
2022-11-19T12:34:52.433Z,1.70
2022-11-19T12:37:35.483Z,1.80
2022-11-19T12:40:13.141Z,1.50
2022-11-19T12:42:58.439Z,1.50
2022-11-19T12:45:37.424Z,1.70
2022-11-19T12:48:29.897Z,1.80
2022-11-19T12:51:07.310Z,1.70
2022-11-19T12:53:52.820Z,1.30
2022-11-19T12:56:31.077Z,1.70
2022-11-19T12:59:09.582Z,1.63
2022-11-19T13:01:43.609Z,1.40
2022-11-19T13:04:16.226Z,1.43
2022-11-19T13:06:49.079Z,1.60
2022-11-19T13:09:23.046Z,1.47
2022-11-19T13:11:55.000Z,1.50
2022-11-19T13:14:33.347Z,1.50
2022-11-19T13:17:04.634Z,1.60
2022-11-19T13:19:35.494Z,1.50
2022-11-19T13:22:12.494Z,1.60
2022-11-19T13:24:43.565Z,1.60
2022-11-19T13:27:22.749Z,1.70
2022-11-19T13:29:58.412Z,1.70
2022-11-19T13:32:31.423Z,1.53
2022-11-19T13:35:13.613Z,1.30
2022-11-19T13:37:52.760Z,1.40
2022-11-19T13:40:29.605Z,1.20
2022-11-19T13:43:32.589Z,1.40
2022-11-19T13:46:18.847Z,1.50
2022-11-19T13:48:53.476Z,1.40
2022-11-19T13:51:28.822Z,1.20
2022-11-19T13:54:03.052Z,1.00
2022-11-19T13:56:44.161Z,1.10
2022-11-19T13:59:28.316Z,0.70
2022-11-19T14:02:08.529Z,0.80
2022-11-19T14:04:59.834Z,0.80
2022-11-19T14:07:42.558Z,0.77
2022-11-19T14:10:19.658Z,1.10
2022-11-19T14:13:02.079Z,1.10
2022-11-19T14:16:00.627Z,1.10
2022-11-19T14:19:01.388Z,1.00
2022-11-19T14:22:07.568Z,1.00
2022-11-19T14:25:13.117Z,1.20
2022-11-19T14:27:42.666Z,1.00
2022-11-19T14:30:13.305Z,0.80
2022-11-19T14:32:47.166Z,1.07
2022-11-19T14:35:42.776Z,0.90
2022-11-19T14:38:37.660Z,0.80
2022-11-19T14:41:19.555Z,1.00
2022-11-19T14:44:11.237Z,1.00
2022-11-19T14:46:42.180Z,1.00
2022-11-19T14:49:34.400Z,0.90
2022-11-19T14:52:04.037Z,0.90
2022-11-19T14:54:37.202Z,1.00
2022-11-19T14:57:09.221Z,1.20
2022-11-19T14:59:40.057Z,1.20
2022-11-19T15:02:20.050Z,1.07
2022-11-19T15:04:54.894Z,1.00
2022-11-19T15:07:42.982Z,1.00
2022-11-19T15:10:30.841Z,1.10
2022-11-19T15:13:26.566Z,1.00
2022-11-19T15:16:03.058Z,0.90
2022-11-19T15:19:12.984Z,1.10
2022-11-19T15:22:16.553Z,0.90
2022-11-19T15:25:06.886Z,1.00
2022-11-19T15:28:03.573Z,1.10
2022-11-19T15:30:45.876Z,1.13
2022-11-19T15:33:50.214Z,0.90
2022-11-19T15:36:34.211Z,0.90
2022-11-19T15:39:06.416Z,0.90
2022-11-19T15:42:00.576Z,1.07
2022-11-19T15:44:36.161Z,0.90
2022-11-19T15:47:08.545Z,1.10
2022-11-19T15:49:39.340Z,0.80
2022-11-19T15:52:18.093Z,1.00
2022-11-19T15:54:46.663Z,0.90
2022-11-19T15:57:24.281Z,0.97
2022-11-19T15:59:57.475Z,1.10
2022-11-19T16:02:38.139Z,1.30
2022-11-19T16:05:18.004Z,1.30
2022-11-19T16:07:46.924Z,1.40
2022-11-19T16:10:17.073Z,1.20
2022-11-19T16:13:12.309Z,1.40
2022-11-19T16:16:06.164Z,1.60
2022-11-19T16:18:45.805Z,2.10
2022-11-19T16:21:20.125Z,2.20
2022-11-19T16:24:02.006Z,1.90
2022-11-19T16:26:30.275Z,1.90
2022-11-19T16:28:58.363Z,2.17
2022-11-19T16:31:31.946Z,1.80
2022-11-19T16:34:01.035Z,2.20
2022-11-19T16:36:32.799Z,2.10
2022-11-19T16:39:01.541Z,1.97
2022-11-19T16:41:49.369Z,2.10
2022-11-19T16:44:22.039Z,2.10
2022-11-19T16:46:51.570Z,2.00
2022-11-19T16:49:32.149Z,1.90
2022-11-19T16:52:03.133Z,2.00
2022-11-19T16:54:48.519Z,1.90
2022-11-19T16:57:20.148Z,1.80
2022-11-19T16:59:51.109Z,1.87
2022-11-19T17:02:21.768Z,1.90
2022-11-19T17:04:51.846Z,1.90
2022-11-19T17:07:26.880Z,1.90
2022-11-19T17:10:30.277Z,1.60
2022-11-19T17:13:02.710Z,1.90
2022-11-19T17:15:38.633Z,1.50
2022-11-19T17:18:17.240Z,1.60
2022-11-19T17:20:53.387Z,1.70
2022-11-19T17:23:24.335Z,2.13
2022-11-19T17:25:56.078Z,1.83
2022-11-19T17:28:31.064Z,1.80
2022-11-19T17:31:01.144Z,1.90
2022-11-19T17:33:33.937Z,2.00
2022-11-19T17:36:03.952Z,1.80
2022-11-19T17:38:34.363Z,1.90
2022-11-19T17:41:05.139Z,1.90
2022-11-19T17:43:52.501Z,1.83
2022-11-19T17:46:21.360Z,1.80
2022-11-19T17:48:50.496Z,1.80
2022-11-19T17:51:20.497Z,1.83
2022-11-19T17:53:51.486Z,1.60
2022-11-19T17:56:22.771Z,1.80
2022-11-19T17:58:50.836Z,1.70
2022-11-19T18:01:19.225Z,1.70
2022-11-19T18:03:48.030Z,1.60
2022-11-19T18:06:18.077Z,1.90
2022-11-19T18:08:46.731Z,1.63
2022-11-19T18:11:19.374Z,2.03
2022-11-19T18:13:49.253Z,1.87
2022-11-19T18:16:19.756Z,1.90
2022-11-19T18:18:48.259Z,1.70
2022-11-19T18:21:18.465Z,1.80
2022-11-19T18:23:48.008Z,1.70
2022-11-19T18:26:20.685Z,1.67
2022-11-19T18:28:49.412Z,1.90
2022-11-19T18:31:20.501Z,1.87
2022-11-19T18:33:49.351Z,1.73
2022-11-19T18:36:18.985Z,1.70
2022-11-19T18:38:47.068Z,2.00
2022-11-19T18:41:19.868Z,2.03
2022-11-19T18:44:05.726Z,1.80
2022-11-19T18:46:36.638Z,1.90
2022-11-19T18:49:04.680Z,2.30
2022-11-19T18:51:33.383Z,2.40
2022-11-19T18:54:01.514Z,2.20
2022-11-19T18:56:31.139Z,2.43
2022-11-19T18:59:04.503Z,2.00
2022-11-19T19:01:33.227Z,1.97
2022-11-19T19:04:02.164Z,1.87
2022-11-19T19:06:32.612Z,1.77
2022-11-19T19:09:00.959Z,2.00
2022-11-19T19:11:47.913Z,2.13
2022-11-19T19:14:16.045Z,2.00
2022-11-19T19:16:44.504Z,2.00
2022-11-19T19:19:16.144Z,2.10
2022-11-19T19:21:44.204Z,2.27
2022-11-19T19:24:12.434Z,1.93
2022-11-19T19:26:41.867Z,2.00
2022-11-19T19:29:10.493Z,2.00
2022-11-19T19:31:38.790Z,1.90
2022-11-19T19:34:07.012Z,1.90
2022-11-19T19:36:36.923Z,2.00
2022-11-19T19:39:05.314Z,1.70
2022-11-19T19:41:36.346Z,1.60
2022-11-19T19:44:07.179Z,1.73
2022-11-19T19:46:35.885Z,1.50
2022-11-19T19:49:04.166Z,1.40
2022-11-19T19:51:32.905Z,1.30
2022-11-19T19:54:02.113Z,1.70
2022-11-19T19:56:31.950Z,2.00
2022-11-19T19:59:00.621Z,2.10
2022-11-19T20:01:31.860Z,1.90
2022-11-19T20:04:04.845Z,1.90
2022-11-19T20:06:41.047Z,1.80
2022-11-19T20:09:09.769Z,1.30
2022-11-19T20:11:38.626Z,1.90
2022-11-19T20:14:07.113Z,1.70
2022-11-19T20:16:40.324Z,1.27
2022-11-19T20:19:09.409Z,1.50
2022-11-19T20:21:37.617Z,1.40
2022-11-19T20:24:12.232Z,1.23
2022-11-19T20:26:41.807Z,1.40
2022-11-19T20:29:12.916Z,1.40
2022-11-19T20:31:46.589Z,1.30
2022-11-19T20:34:15.345Z,1.20
2022-11-19T20:36:44.218Z,1.20
2022-11-19T20:39:12.754Z,1.33
2022-11-19T20:41:58.453Z,1.00
2022-11-19T20:44:26.557Z,1.23
2022-11-19T20:46:57.305Z,1.10
2022-11-19T20:49:27.210Z,0.90
2022-11-19T20:51:55.373Z,1.10
2022-11-19T20:54:24.920Z,1.30
2022-11-19T20:56:54.651Z,1.40
2022-11-19T20:59:23.836Z,1.00
2022-11-19T21:01:53.029Z,1.20
2022-11-19T21:04:23.614Z,1.10
2022-11-19T21:06:51.622Z,1.20
2022-11-19T21:09:20.614Z,1.20
2022-11-19T21:11:48.986Z,1.20
2022-11-19T21:14:16.972Z,1.20
2022-11-19T21:16:45.019Z,1.20
2022-11-19T21:19:13.603Z,1.00
2022-11-19T21:21:43.144Z,1.30
2022-11-19T21:24:11.161Z,1.10
2022-11-19T21:26:39.261Z,1.00
2022-11-19T21:29:07.693Z,0.90
2022-11-19T21:31:42.152Z,1.30
2022-11-19T21:34:12.169Z,1.10
2022-11-19T21:36:42.623Z,1.13
2022-11-19T21:39:11.616Z,1.10
2022-11-19T21:41:39.925Z,1.30
2022-11-19T21:44:08.524Z,0.97
2022-11-19T21:46:37.387Z,1.10
2022-11-19T21:49:06.466Z,1.10
2022-11-19T21:51:34.934Z,1.30
2022-11-19T21:54:04.279Z,0.90
2022-11-19T21:56:38.215Z,1.00
2022-11-19T21:59:06.787Z,1.03
2022-11-19T22:01:34.949Z,1.13
2022-11-19T22:04:02.982Z,1.10
2022-11-19T22:06:31.979Z,1.20
2022-11-19T22:08:59.993Z,1.50
2022-11-19T22:11:32.471Z,1.00
2022-11-19T22:14:02.452Z,1.40
2022-11-19T22:16:32.084Z,1.03
2022-11-19T22:19:00.148Z,1.10
2022-11-19T22:21:29.159Z,1.27
2022-11-19T22:23:57.578Z,1.10
2022-11-19T22:26:26.386Z,1.23
2022-11-19T22:28:56.015Z,1.20
2022-11-19T22:31:24.332Z,1.50
2022-11-19T22:33:53.827Z,1.50
2022-11-19T22:36:23.170Z,1.50
2022-11-19T22:38:52.144Z,1.60
2022-11-19T22:41:22.306Z,1.80
2022-11-19T22:43:51.080Z,1.30
2022-11-19T22:46:21.739Z,1.40
2022-11-19T22:48:49.916Z,1.50
2022-11-19T22:51:20.208Z,1.63
2022-11-19T22:53:48.709Z,1.77
2022-11-19T22:56:19.212Z,1.80
2022-11-19T22:58:47.471Z,1.60
2022-11-19T23:01:18.597Z,1.80
2022-11-19T23:03:48.456Z,1.90
2022-11-19T23:06:16.543Z,1.50
2022-11-19T23:08:44.999Z,1.67
2022-11-19T23:11:14.766Z,2.10
2022-11-19T23:13:43.672Z,2.67
2022-11-19T23:16:13.233Z,2.60
2022-11-19T23:18:43.261Z,2.13
2022-11-19T23:21:14.836Z,1.70
2022-11-19T23:23:43.191Z,1.70
2022-11-19T23:26:13.636Z,1.50
2022-11-19T23:28:42.408Z,1.47
2022-11-19T23:31:14.434Z,1.80
2022-11-19T23:33:42.482Z,1.60
2022-11-19T23:36:14.754Z,1.50
2022-11-19T23:38:43.353Z,1.90
2022-11-19T23:41:13.256Z,1.77
2022-11-19T23:43:41.763Z,1.80
2022-11-19T23:46:11.783Z,1.90
2022-11-19T23:48:40.986Z,1.70
2022-11-19T23:51:11.061Z,1.60
2022-11-19T23:53:40.440Z,1.87
2022-11-19T23:56:09.802Z,1.90
2022-11-19T23:58:39.050Z,1.87
